createdAt,value
2022-08-26T00:00:11.525Z,61.19
2022-08-26T00:01:11.509Z,61.16
2022-08-26T00:02:11.623Z,61.11
2022-08-26T00:03:11.495Z,61.07
2022-08-26T00:04:11.571Z,61.06
2022-08-26T00:05:11.472Z,61.08
2022-08-26T00:06:11.489Z,61.08
2022-08-26T00:07:11.465Z,61.00
2022-08-26T00:08:13.115Z,61.01
2022-08-26T00:09:11.424Z,60.99
2022-08-26T00:10:11.419Z,60.96
2022-08-26T00:11:11.397Z,60.96
2022-08-26T00:12:12.479Z,60.95
2022-08-26T00:13:11.372Z,61.03
2022-08-26T00:14:11.378Z,61.12
2022-08-26T00:15:11.378Z,61.18
2022-08-26T00:16:11.421Z,61.25
2022-08-26T00:17:11.340Z,61.24
2022-08-26T00:18:22.017Z,61.16
2022-08-26T00:19:12.308Z,61.17
2022-08-26T00:20:11.297Z,61.27
2022-08-26T00:21:11.281Z,61.49
2022-08-26T00:22:11.283Z,61.62
2022-08-26T00:23:11.242Z,61.88
2022-08-26T00:24:11.242Z,62.17
2022-08-26T00:25:11.230Z,62.62
2022-08-26T00:26:11.224Z,62.82
2022-08-26T00:27:11.248Z,62.81
2022-08-26T00:28:11.209Z,62.61
2022-08-26T00:29:11.183Z,62.45
2022-08-26T00:30:11.173Z,62.48
2022-08-26T00:31:11.311Z,62.53
2022-08-26T00:32:11.145Z,62.69
2022-08-26T00:33:11.144Z,62.72
2022-08-26T00:34:11.377Z,62.84
2022-08-26T00:35:11.106Z,62.90
2022-08-26T00:36:12.886Z,62.87
2022-08-26T00:37:15.641Z,62.85
2022-08-26T00:38:11.108Z,62.93
2022-08-26T00:39:11.076Z,62.99
2022-08-26T00:40:11.100Z,63.09
2022-08-26T00:41:11.042Z,63.25
2022-08-26T00:42:11.073Z,63.39
2022-08-26T00:43:11.108Z,63.33
2022-08-26T00:44:11.107Z,63.32
2022-08-26T00:45:11.794Z,63.14
2022-08-26T00:46:11.052Z,62.93
2022-08-26T00:47:10.987Z,62.67
2022-08-26T00:48:10.974Z,62.57
2022-08-26T00:49:11.991Z,62.45
2022-08-26T00:50:10.939Z,62.53
2022-08-26T00:51:10.940Z,62.60
2022-08-26T00:52:11.944Z,62.66
2022-08-26T00:53:10.919Z,62.82
2022-08-26T00:54:10.929Z,62.92
2022-08-26T00:55:10.892Z,62.96
2022-08-26T00:56:10.867Z,62.93
2022-08-26T00:57:16.386Z,62.87
2022-08-26T00:58:11.854Z,62.89
2022-08-26T00:59:10.842Z,62.94
2022-08-26T01:00:10.817Z,62.86
2022-08-26T01:01:10.881Z,62.82
2022-08-26T01:02:20.229Z,62.82
2022-08-26T01:03:12.797Z,62.80
2022-08-26T01:04:10.787Z,62.76
2022-08-26T01:05:10.791Z,62.88
2022-08-26T01:06:12.351Z,62.82
2022-08-26T01:07:10.786Z,62.92
2022-08-26T01:08:10.732Z,62.86
2022-08-26T01:09:10.715Z,62.95
2022-08-26T01:10:10.721Z,63.02
2022-08-26T01:11:10.698Z,63.04
2022-08-26T01:12:10.724Z,63.08
2022-08-26T01:13:10.669Z,63.13
2022-08-26T01:14:10.660Z,63.09
2022-08-26T01:15:10.660Z,63.15
2022-08-26T01:16:10.699Z,63.12
2022-08-26T01:17:10.652Z,63.13
2022-08-26T01:18:10.634Z,63.09
2022-08-26T01:19:10.607Z,62.96
2022-08-26T01:20:10.593Z,62.96
2022-08-26T01:21:10.578Z,62.95
2022-08-26T01:22:10.564Z,63.03
2022-08-26T01:23:10.570Z,63.05
2022-08-26T01:24:10.540Z,63.09
2022-08-26T01:25:10.533Z,63.06
2022-08-26T01:26:15.335Z,63.06
2022-08-26T01:27:11.510Z,63.06
2022-08-26T01:28:10.527Z,63.02
2022-08-26T01:29:10.476Z,63.12
2022-08-26T01:30:10.481Z,63.13
2022-08-26T01:31:10.507Z,63.26
2022-08-26T01:32:10.453Z,63.28
2022-08-26T01:33:10.466Z,63.33
2022-08-26T01:34:10.428Z,63.33
2022-08-26T01:35:10.417Z,63.37
2022-08-26T01:36:10.414Z,63.59
2022-08-26T01:37:14.686Z,63.69
2022-08-26T01:38:11.428Z,63.74
2022-08-26T01:39:10.359Z,63.76
2022-08-26T01:40:10.480Z,63.91
2022-08-26T01:41:16.372Z,63.96
2022-08-26T01:42:11.346Z,64.03
2022-08-26T01:43:10.352Z,64.01
2022-08-26T01:44:10.339Z,64.08
2022-08-26T01:45:10.297Z,64.18
2022-08-26T01:46:10.361Z,64.24
2022-08-26T01:47:10.271Z,64.24
2022-08-26T01:48:10.267Z,64.32
2022-08-26T01:49:10.258Z,64.47
2022-08-26T01:50:10.263Z,64.53
2022-08-26T01:51:10.235Z,64.69
2022-08-26T01:52:10.737Z,64.76
2022-08-26T01:53:10.728Z,64.91
2022-08-26T01:54:12.071Z,65.01
2022-08-26T01:55:10.215Z,65.08
2022-08-26T01:56:10.204Z,65.15
2022-08-26T01:57:10.151Z,65.27
2022-08-26T01:58:10.151Z,65.41
2022-08-26T01:59:10.134Z,65.56
2022-08-26T02:00:10.130Z,65.71
2022-08-26T02:01:10.165Z,65.81
2022-08-26T02:02:10.109Z,65.92
2022-08-26T02:03:10.091Z,66.02
2022-08-26T02:04:10.140Z,66.04
2022-08-26T02:05:10.060Z,66.02
2022-08-26T02:06:10.289Z,65.98
2022-08-26T02:07:10.061Z,65.92
2022-08-26T02:08:10.043Z,65.98
2022-08-26T02:09:10.027Z,65.96
2022-08-26T02:10:10.004Z,66.02
2022-08-26T02:11:10.006Z,65.99
2022-08-26T02:12:10.007Z,65.94
2022-08-26T02:13:09.982Z,66.00
2022-08-26T02:14:09.956Z,66.10
2022-08-26T02:15:09.950Z,66.12
2022-08-26T02:16:09.976Z,66.09
2022-08-26T02:17:09.949Z,66.12
2022-08-26T02:18:14.058Z,66.11
2022-08-26T02:19:09.916Z,66.17
2022-08-26T02:20:13.111Z,66.16
2022-08-26T02:21:09.902Z,66.22
2022-08-26T02:22:09.875Z,66.21
2022-08-26T02:23:09.877Z,66.23
2022-08-26T02:24:09.855Z,66.27
2022-08-26T02:25:09.854Z,66.29
2022-08-26T02:26:09.836Z,66.32
2022-08-26T02:27:09.821Z,66.26
2022-08-26T02:28:09.814Z,66.26
2022-08-26T02:29:09.794Z,66.26
2022-08-26T02:30:09.788Z,66.40
2022-08-26T02:31:10.050Z,66.42
2022-08-26T02:32:09.779Z,66.41
2022-08-26T02:33:09.758Z,66.39
2022-08-26T02:34:10.755Z,66.39
2022-08-26T02:35:09.721Z,66.44
2022-08-26T02:36:09.702Z,66.47
2022-08-26T02:37:09.702Z,66.55
2022-08-26T02:38:10.006Z,66.61
2022-08-26T02:39:09.676Z,66.62
2022-08-26T02:40:09.703Z,66.65
2022-08-26T02:41:09.641Z,66.72
2022-08-26T02:42:09.646Z,66.84
2022-08-26T02:43:09.677Z,67.01
2022-08-26T02:44:09.614Z,67.21
2022-08-26T02:45:09.616Z,67.42
2022-08-26T02:46:09.586Z,67.57
2022-08-26T02:47:09.651Z,67.72
2022-08-26T02:48:09.604Z,67.77
2022-08-26T02:49:09.546Z,67.85
2022-08-26T02:50:09.558Z,68.15
2022-08-26T02:51:09.564Z,68.46
2022-08-26T02:52:09.528Z,68.80
2022-08-26T02:53:09.743Z,68.92
2022-08-26T02:54:09.492Z,69.04
2022-08-26T02:55:09.490Z,69.51
2022-08-26T02:56:09.487Z,69.55
2022-08-26T02:57:09.456Z,69.69
2022-08-26T02:58:09.449Z,69.96
2022-08-26T02:59:09.454Z,70.28
2022-08-26T03:00:09.426Z,70.64
2022-08-26T03:01:09.496Z,71.04
2022-08-26T03:02:09.464Z,71.39
2022-08-26T03:03:09.531Z,71.88
2022-08-26T03:04:09.417Z,72.86
2022-08-26T03:05:09.370Z,74.03
2022-08-26T03:06:09.349Z,74.70
2022-08-26T03:07:09.365Z,74.74
2022-08-26T03:08:09.337Z,75.16
2022-08-26T03:09:09.342Z,75.19
2022-08-26T03:10:09.309Z,75.22
2022-08-26T03:11:09.316Z,75.31
2022-08-26T03:12:09.292Z,75.46
2022-08-26T03:13:09.410Z,75.75
2022-08-26T03:14:09.281Z,75.79
2022-08-26T03:15:15.948Z,75.79
2022-08-26T03:16:10.310Z,75.80
2022-08-26T03:17:09.575Z,75.84
2022-08-26T03:18:09.231Z,75.84
2022-08-26T03:19:09.207Z,75.85
2022-08-26T03:20:09.193Z,75.78
2022-08-26T03:21:09.177Z,75.87
2022-08-26T03:22:09.168Z,75.98
2022-08-26T03:23:09.290Z,76.03
2022-08-26T03:24:09.170Z,76.09
2022-08-26T03:25:09.145Z,76.11
2022-08-26T03:26:09.109Z,76.37
2022-08-26T03:27:09.101Z,76.47
2022-08-26T03:28:09.706Z,76.50
2022-08-26T03:29:09.080Z,76.52
2022-08-26T03:30:09.095Z,76.52
2022-08-26T03:31:09.088Z,76.53
2022-08-26T03:32:09.060Z,76.53
2022-08-26T03:33:09.120Z,76.61
2022-08-26T03:34:09.044Z,76.61
2022-08-26T03:35:09.041Z,76.62
2022-08-26T03:36:08.998Z,76.60
2022-08-26T03:37:09.006Z,76.63
2022-08-26T03:38:08.983Z,76.60
2022-08-26T03:39:08.982Z,76.66
2022-08-26T03:40:09.095Z,76.66
2022-08-26T03:41:08.946Z,76.67
2022-08-26T03:42:08.930Z,76.74
2022-08-26T03:43:09.818Z,76.67
2022-08-26T03:44:08.907Z,76.65
2022-08-26T03:45:08.925Z,76.66
2022-08-26T03:46:08.962Z,76.63
2022-08-26T03:47:08.888Z,76.63
2022-08-26T03:48:08.863Z,76.64
2022-08-26T03:49:08.848Z,76.61
2022-08-26T03:50:08.846Z,76.57
2022-08-26T03:51:08.855Z,76.60
2022-08-26T03:52:08.820Z,76.58
2022-08-26T03:53:13.284Z,76.56
2022-08-26T03:54:08.788Z,76.53
2022-08-26T03:55:08.789Z,76.52
2022-08-26T03:56:08.789Z,76.51
2022-08-26T03:57:08.761Z,76.54
2022-08-26T03:58:08.744Z,76.50
2022-08-26T03:59:08.737Z,76.50
2022-08-26T04:00:08.729Z,76.50
2022-08-26T04:01:08.729Z,76.46
2022-08-26T04:02:11.623Z,76.43
2022-08-26T04:03:10.031Z,76.35
2022-08-26T04:04:08.754Z,76.34
2022-08-26T04:05:08.667Z,76.31
2022-08-26T04:06:08.671Z,76.30
2022-08-26T04:07:08.637Z,76.30
2022-08-26T04:08:08.630Z,76.23
2022-08-26T04:09:08.616Z,76.20
2022-08-26T04:10:08.626Z,76.21
2022-08-26T04:11:08.607Z,76.22
2022-08-26T04:12:08.589Z,76.23
2022-08-26T04:13:08.700Z,76.20
2022-08-26T04:14:08.555Z,76.21
2022-08-26T04:15:08.559Z,76.15
2022-08-26T04:16:08.662Z,76.10
2022-08-26T04:17:08.522Z,76.07
2022-08-26T04:18:08.517Z,76.06
2022-08-26T04:19:08.519Z,76.06
2022-08-26T04:20:08.501Z,76.05
2022-08-26T04:21:08.481Z,76.00
2022-08-26T04:22:08.489Z,75.93
2022-08-26T04:23:08.608Z,75.88
2022-08-26T04:24:11.747Z,75.81
2022-08-26T04:25:08.444Z,75.76
2022-08-26T04:26:08.433Z,75.72
2022-08-26T04:27:08.433Z,75.67
2022-08-26T04:28:08.392Z,75.62
2022-08-26T04:29:08.405Z,75.61
2022-08-26T04:30:08.384Z,75.59
2022-08-26T04:31:08.408Z,75.50
2022-08-26T04:32:08.364Z,75.44
2022-08-26T04:33:13.183Z,75.47
2022-08-26T04:34:09.340Z,75.41
2022-08-26T04:35:08.319Z,75.36
2022-08-26T04:36:08.306Z,75.34
2022-08-26T04:37:08.330Z,75.29
2022-08-26T04:38:08.284Z,75.25
2022-08-26T04:39:08.295Z,75.19
2022-08-26T04:40:08.330Z,75.12
2022-08-26T04:41:15.339Z,75.08
2022-08-26T04:42:09.244Z,75.08
2022-08-26T04:43:08.436Z,75.10
2022-08-26T04:44:08.218Z,75.02
2022-08-26T04:45:09.937Z,75.00
2022-08-26T04:46:08.226Z,74.96
2022-08-26T04:47:08.217Z,74.95
2022-08-26T04:48:08.188Z,74.86
2022-08-26T04:49:08.158Z,74.87
2022-08-26T04:50:08.156Z,74.89
2022-08-26T04:51:08.159Z,74.92
2022-08-26T04:52:08.147Z,74.91
2022-08-26T04:53:08.220Z,74.91
2022-08-26T04:54:08.111Z,74.83
2022-08-26T04:55:08.361Z,74.88
2022-08-26T04:56:08.093Z,74.82
2022-08-26T04:57:08.099Z,74.77
2022-08-26T04:58:08.077Z,74.74
2022-08-26T04:59:08.047Z,74.77
2022-08-26T05:00:09.040Z,74.75
2022-08-26T05:01:08.023Z,74.72
2022-08-26T05:02:08.088Z,74.69
2022-08-26T05:03:10.279Z,74.67
2022-08-26T05:04:08.227Z,74.62
2022-08-26T05:05:07.990Z,74.62
2022-08-26T05:06:07.966Z,74.62
2022-08-26T05:07:07.991Z,74.64
2022-08-26T05:08:07.962Z,74.61
2022-08-26T05:09:07.950Z,74.60
2022-08-26T05:10:08.866Z,74.60
2022-08-26T05:11:07.920Z,74.63
2022-08-26T05:12:07.965Z,74.55
2022-08-26T05:13:11.137Z,74.52
2022-08-26T05:14:07.879Z,74.56
2022-08-26T05:15:07.906Z,74.61
2022-08-26T05:16:07.907Z,74.57
2022-08-26T05:17:07.893Z,74.62
2022-08-26T05:18:07.833Z,74.55
2022-08-26T05:19:08.422Z,74.58
2022-08-26T05:20:07.822Z,74.59
2022-08-26T05:21:07.812Z,74.54
2022-08-26T05:22:07.801Z,74.57
2022-08-26T05:23:08.003Z,74.56
2022-08-26T05:24:07.761Z,74.53
2022-08-26T05:25:07.763Z,74.58
2022-08-26T05:26:07.750Z,74.54
2022-08-26T05:27:11.476Z,74.58
2022-08-26T05:28:07.741Z,74.63
2022-08-26T05:29:07.698Z,74.58
2022-08-26T05:30:07.685Z,74.59
2022-08-26T05:31:07.740Z,74.57
2022-08-26T05:32:07.681Z,74.52
2022-08-26T05:33:07.972Z,74.50
2022-08-26T05:34:08.552Z,74.42
2022-08-26T05:35:08.781Z,74.46
2022-08-26T05:36:07.617Z,74.43
2022-08-26T05:37:07.637Z,74.37
2022-08-26T05:38:12.277Z,74.33
2022-08-26T05:39:10.437Z,74.25
2022-08-26T05:40:07.643Z,74.14
2022-08-26T05:41:07.569Z,74.17
2022-08-26T05:42:07.566Z,74.15
2022-08-26T05:43:07.708Z,74.17
2022-08-26T05:44:07.575Z,74.08
2022-08-26T05:45:07.530Z,73.97
2022-08-26T05:46:07.560Z,73.74
2022-08-26T05:47:07.503Z,73.57
2022-08-26T05:48:07.499Z,73.72
2022-08-26T05:49:12.621Z,73.80
2022-08-26T05:50:08.498Z,73.71
2022-08-26T05:51:07.457Z,73.68
2022-08-26T05:52:07.448Z,73.63
2022-08-26T05:53:07.595Z,73.65
2022-08-26T05:54:07.440Z,73.39
2022-08-26T05:55:07.412Z,73.04
2022-08-26T05:56:07.392Z,73.14
2022-08-26T05:57:07.392Z,73.10
2022-08-26T05:58:07.391Z,73.07
2022-08-26T05:59:08.123Z,73.05
2022-08-26T06:00:08.382Z,72.92
2022-08-26T06:01:07.366Z,72.93
2022-08-26T06:02:07.335Z,72.72
2022-08-26T06:03:07.466Z,72.70
2022-08-26T06:04:07.303Z,72.74
2022-08-26T06:05:07.614Z,72.65
2022-08-26T06:06:07.318Z,72.49
2022-08-26T06:07:07.427Z,72.44
2022-08-26T06:08:07.267Z,72.36
2022-08-26T06:09:09.389Z,72.09
2022-08-26T06:10:30.904Z,72.17
2022-08-26T06:11:08.226Z,72.11
2022-08-26T06:12:08.212Z,72.06
2022-08-26T06:13:11.509Z,72.09
2022-08-26T06:14:07.195Z,72.06
2022-08-26T06:15:07.183Z,72.04
2022-08-26T06:16:07.203Z,71.85
2022-08-26T06:17:07.167Z,71.91
2022-08-26T06:18:07.151Z,71.95
2022-08-26T06:19:10.869Z,71.95
2022-08-26T06:20:07.135Z,71.91
2022-08-26T06:21:07.139Z,71.87
2022-08-26T06:22:07.096Z,71.86
2022-08-26T06:23:07.184Z,71.81
2022-08-26T06:24:07.075Z,71.83
2022-08-26T06:25:07.077Z,71.81
2022-08-26T06:26:07.069Z,71.91
2022-08-26T06:27:07.047Z,71.87
2022-08-26T06:28:07.028Z,71.58
2022-08-26T06:29:07.018Z,71.48
2022-08-26T06:30:07.007Z,71.43
2022-08-26T06:31:07.034Z,71.27
2022-08-26T06:32:07.010Z,71.25
2022-08-26T06:33:07.076Z,71.25
2022-08-26T06:34:10.557Z,71.24
2022-08-26T06:35:06.957Z,71.21
2022-08-26T06:36:07.981Z,71.23
2022-08-26T06:37:06.985Z,71.18
2022-08-26T06:38:06.919Z,71.19
2022-08-26T06:39:06.913Z,71.25
2022-08-26T06:40:06.992Z,71.25
2022-08-26T06:41:06.880Z,71.22
2022-08-26T06:42:06.874Z,71.18
2022-08-26T06:43:07.069Z,71.20
2022-08-26T06:44:06.850Z,71.11
2022-08-26T06:45:06.850Z,71.17
2022-08-26T06:46:06.953Z,71.14
2022-08-26T06:47:06.825Z,71.12
2022-08-26T06:48:06.806Z,71.02
2022-08-26T06:49:06.794Z,71.05
2022-08-26T06:50:06.813Z,71.12
2022-08-26T06:51:06.771Z,71.03
2022-08-26T06:52:06.801Z,70.96
2022-08-26T06:53:06.800Z,70.64
2022-08-26T06:54:06.761Z,70.53
2022-08-26T06:55:06.731Z,70.52
2022-08-26T06:56:06.703Z,70.47
2022-08-26T06:57:06.715Z,70.46
2022-08-26T06:58:06.684Z,70.60
2022-08-26T06:59:07.186Z,70.60
2022-08-26T07:00:06.668Z,70.67
2022-08-26T07:01:11.258Z,70.80
2022-08-26T07:02:06.693Z,70.86
2022-08-26T07:03:06.852Z,70.89
2022-08-26T07:04:10.337Z,70.84
2022-08-26T07:05:06.595Z,70.75
2022-08-26T07:06:06.586Z,70.75
2022-08-26T07:07:06.596Z,70.73
2022-08-26T07:08:06.588Z,70.75
2022-08-26T07:09:06.573Z,70.66
2022-08-26T07:10:06.548Z,70.46
2022-08-26T07:11:06.529Z,70.38
2022-08-26T07:12:06.938Z,70.42
2022-08-26T07:13:06.605Z,70.47
2022-08-26T07:14:06.485Z,70.47
2022-08-26T07:15:06.525Z,70.47
2022-08-26T07:16:06.555Z,70.39
2022-08-26T07:17:06.478Z,70.38
2022-08-26T07:18:06.442Z,70.48
2022-08-26T07:19:10.970Z,70.51
2022-08-26T07:20:07.422Z,70.47
2022-08-26T07:21:06.412Z,70.50
2022-08-26T07:22:06.424Z,70.41
2022-08-26T07:23:06.437Z,70.41
2022-08-26T07:24:06.380Z,70.36
2022-08-26T07:25:06.366Z,70.32
2022-08-26T07:26:06.353Z,70.24
2022-08-26T07:27:06.369Z,70.14
2022-08-26T07:28:06.329Z,70.05
2022-08-26T07:29:06.343Z,70.25
2022-08-26T07:30:06.319Z,70.31
2022-08-26T07:31:07.405Z,70.21
2022-08-26T07:32:06.303Z,70.28
2022-08-26T07:33:06.311Z,70.29
2022-08-26T07:34:06.266Z,70.32
2022-08-26T07:35:06.341Z,70.25
2022-08-26T07:36:06.280Z,70.28
2022-08-26T07:37:06.224Z,70.29
2022-08-26T07:38:06.241Z,70.27
2022-08-26T07:39:06.204Z,70.25
2022-08-26T07:40:06.229Z,70.34
2022-08-26T07:41:06.183Z,70.21
2022-08-26T07:42:07.354Z,70.24
2022-08-26T07:43:06.197Z,70.32
2022-08-26T07:44:06.144Z,70.37
2022-08-26T07:45:06.156Z,70.30
2022-08-26T07:46:06.113Z,69.97
2022-08-26T07:47:10.499Z,69.84
2022-08-26T07:48:07.136Z,69.39
2022-08-26T07:49:06.165Z,69.35
2022-08-26T07:50:06.071Z,69.32
2022-08-26T07:51:06.056Z,69.36
2022-08-26T07:52:06.083Z,69.25
2022-08-26T07:53:06.044Z,69.20
2022-08-26T07:54:06.028Z,69.34
2022-08-26T07:55:06.049Z,69.19
2022-08-26T07:56:06.010Z,69.20
2022-08-26T07:57:08.401Z,69.23
2022-08-26T07:58:06.024Z,69.28
2022-08-26T07:59:13.625Z,69.32
2022-08-26T08:00:06.947Z,68.92
2022-08-26T08:01:05.977Z,68.75
2022-08-26T08:02:05.941Z,68.73
2022-08-26T08:03:05.995Z,68.49
2022-08-26T08:04:05.929Z,68.49
2022-08-26T08:05:06.021Z,68.49
2022-08-26T08:06:05.883Z,68.31
2022-08-26T08:07:05.878Z,68.33
2022-08-26T08:08:26.676Z,68.42
2022-08-26T08:09:06.917Z,68.36
2022-08-26T08:10:09.753Z,68.38
2022-08-26T08:11:06.819Z,68.33
2022-08-26T08:12:05.816Z,68.14
2022-08-26T08:13:05.815Z,68.13
2022-08-26T08:14:08.411Z,68.07
2022-08-26T08:15:06.766Z,68.09
2022-08-26T08:16:05.771Z,67.88
2022-08-26T08:17:05.899Z,67.74
2022-08-26T08:18:05.811Z,67.69
2022-08-26T08:19:05.720Z,67.64
2022-08-26T08:20:05.733Z,67.73
2022-08-26T08:21:21.225Z,67.73
2022-08-26T08:22:17.510Z,67.40
2022-08-26T08:23:06.679Z,67.40
2022-08-26T08:24:05.700Z,67.54
2022-08-26T08:25:08.141Z,67.49
2022-08-26T08:26:05.698Z,67.47
2022-08-26T08:27:05.651Z,67.40
2022-08-26T08:28:05.637Z,67.31
2022-08-26T08:29:05.617Z,67.41
2022-08-26T08:30:05.624Z,67.53
2022-08-26T08:31:05.967Z,67.53
2022-08-26T08:32:05.651Z,67.71
2022-08-26T08:33:06.621Z,67.70
2022-08-26T08:34:05.566Z,67.70
2022-08-26T08:35:11.057Z,67.72
2022-08-26T08:36:06.555Z,67.67
2022-08-26T08:37:08.596Z,67.69
2022-08-26T08:38:06.529Z,67.63
2022-08-26T08:39:06.468Z,67.64
2022-08-26T08:40:05.547Z,67.68
2022-08-26T08:41:05.691Z,67.62
2022-08-26T08:42:05.504Z,67.43
2022-08-26T08:43:05.519Z,67.37
2022-08-26T08:44:05.454Z,67.33
2022-08-26T08:45:05.429Z,67.34
2022-08-26T08:46:05.459Z,67.32
2022-08-26T08:47:05.408Z,67.27
2022-08-26T08:48:05.445Z,67.44
2022-08-26T08:49:05.379Z,67.40
2022-08-26T08:50:05.406Z,67.25
2022-08-26T08:51:05.386Z,67.20
2022-08-26T08:52:05.362Z,67.37
2022-08-26T08:53:08.822Z,67.54
2022-08-26T08:54:05.324Z,67.62
2022-08-26T08:55:05.313Z,67.52
2022-08-26T08:56:06.331Z,67.50
2022-08-26T08:57:05.296Z,67.60
2022-08-26T08:58:05.338Z,67.73
2022-08-26T08:59:05.275Z,67.72
2022-08-26T09:00:05.288Z,67.67
2022-08-26T09:01:05.272Z,67.46
2022-08-26T09:02:05.294Z,67.47
2022-08-26T09:03:05.243Z,67.47
2022-08-26T09:04:05.212Z,67.76
2022-08-26T09:05:05.196Z,67.67
2022-08-26T09:06:05.214Z,67.69
2022-08-26T09:07:05.195Z,67.58
2022-08-26T09:08:06.609Z,67.60
2022-08-26T09:09:05.145Z,67.50
2022-08-26T09:10:05.146Z,67.39
2022-08-26T09:11:05.122Z,67.42
2022-08-26T09:12:05.136Z,67.13
2022-08-26T09:13:05.235Z,67.00
2022-08-26T09:14:05.106Z,67.08
2022-08-26T09:15:05.085Z,67.05
2022-08-26T09:16:05.131Z,66.84
2022-08-26T09:17:05.086Z,66.85
2022-08-26T09:18:05.819Z,66.70
2022-08-26T09:19:05.077Z,66.70
2022-08-26T09:20:05.035Z,66.61
2022-08-26T09:21:05.013Z,66.62
2022-08-26T09:22:08.774Z,66.65
2022-08-26T09:23:04.984Z,66.63
2022-08-26T09:24:04.999Z,66.50
2022-08-26T09:25:04.992Z,66.50
2022-08-26T09:26:05.115Z,66.36
2022-08-26T09:27:04.947Z,66.33
2022-08-26T09:28:04.940Z,66.01
2022-08-26T09:29:04.952Z,65.83
2022-08-26T09:30:04.909Z,66.03
2022-08-26T09:31:09.280Z,66.11
2022-08-26T09:32:05.891Z,66.16
2022-08-26T09:33:06.627Z,66.07
2022-08-26T09:34:05.895Z,65.85
2022-08-26T09:35:04.861Z,65.77
2022-08-26T09:36:04.847Z,65.59
2022-08-26T09:37:04.845Z,65.50
2022-08-26T09:38:05.415Z,65.37
2022-08-26T09:39:04.822Z,65.54
2022-08-26T09:40:04.870Z,65.31
2022-08-26T09:41:05.050Z,65.19
2022-08-26T09:42:04.814Z,65.11
2022-08-26T09:43:04.773Z,64.88
2022-08-26T09:44:04.773Z,65.06
2022-08-26T09:45:04.845Z,65.04
2022-08-26T09:46:04.862Z,65.04
2022-08-26T09:47:04.717Z,64.93
2022-08-26T09:48:04.884Z,64.70
2022-08-26T09:49:04.693Z,64.48
2022-08-26T09:50:04.709Z,64.49
2022-08-26T09:51:05.696Z,64.63
2022-08-26T09:52:04.728Z,64.58
2022-08-26T09:53:04.662Z,64.47
2022-08-26T09:54:08.156Z,63.97
2022-08-26T09:55:04.666Z,63.80
2022-08-26T09:56:04.612Z,63.66
2022-08-26T09:57:04.601Z,63.24
2022-08-26T09:58:07.996Z,63.31
2022-08-26T09:59:04.650Z,63.05
2022-08-26T10:00:04.975Z,63.16
2022-08-26T10:01:04.656Z,62.98
2022-08-26T10:02:04.594Z,62.91
2022-08-26T10:03:05.545Z,62.95
2022-08-26T10:04:04.562Z,62.86
2022-08-26T10:05:09.503Z,62.91
2022-08-26T10:06:05.508Z,62.79
2022-08-26T10:07:04.479Z,62.55
2022-08-26T10:08:04.528Z,62.49
2022-08-26T10:09:08.933Z,62.38
2022-08-26T10:10:05.469Z,62.36
2022-08-26T10:11:04.476Z,62.37
2022-08-26T10:12:04.440Z,62.23
2022-08-26T10:13:04.406Z,62.14
2022-08-26T10:14:04.410Z,62.19
2022-08-26T10:15:04.430Z,62.35
2022-08-26T10:16:04.403Z,62.51
2022-08-26T10:17:05.285Z,62.59
2022-08-26T10:18:04.359Z,62.40
2022-08-26T10:19:04.353Z,62.18
2022-08-26T10:20:04.350Z,61.96
2022-08-26T10:21:04.333Z,62.09
2022-08-26T10:22:04.357Z,62.07
2022-08-26T10:23:04.304Z,62.19
2022-08-26T10:24:04.298Z,62.05
2022-08-26T10:25:04.272Z,61.91
2022-08-26T10:26:04.281Z,61.96
2022-08-26T10:27:04.284Z,61.93
2022-08-26T10:28:04.398Z,62.04
2022-08-26T10:29:04.227Z,62.18
2022-08-26T10:30:04.230Z,62.03
2022-08-26T10:31:04.218Z,62.21
2022-08-26T10:32:04.243Z,62.27
2022-08-26T10:33:04.186Z,62.33
2022-08-26T10:34:04.212Z,62.41
2022-08-26T10:35:04.155Z,62.38
2022-08-26T10:36:04.147Z,62.46
2022-08-26T10:37:13.788Z,62.45
2022-08-26T10:38:05.201Z,62.47
2022-08-26T10:39:04.143Z,62.35
2022-08-26T10:40:04.125Z,62.49
2022-08-26T10:41:09.918Z,62.56
2022-08-26T10:42:05.096Z,62.70
2022-08-26T10:43:08.472Z,62.53
2022-08-26T10:44:05.049Z,62.69
2022-08-26T10:45:04.067Z,62.64
2022-08-26T10:46:04.131Z,62.71
2022-08-26T10:47:04.039Z,62.64
2022-08-26T10:48:03.999Z,62.59
2022-08-26T10:49:04.020Z,62.67
2022-08-26T10:50:03.989Z,62.63
2022-08-26T10:51:03.977Z,62.77
2022-08-26T10:52:03.981Z,62.78
2022-08-26T10:53:04.970Z,62.61
2022-08-26T10:54:03.956Z,62.59
2022-08-26T10:55:03.921Z,62.61
2022-08-26T10:56:03.919Z,62.71
2022-08-26T10:57:03.924Z,62.74
2022-08-26T10:58:05.049Z,62.82
2022-08-26T10:59:03.884Z,62.62
2022-08-26T11:00:04.328Z,62.54
2022-08-26T11:01:10.510Z,62.66
2022-08-26T11:02:04.878Z,62.89
2022-08-26T11:03:03.832Z,62.90
2022-08-26T11:04:03.891Z,62.87
2022-08-26T11:05:03.808Z,63.04
2022-08-26T11:06:03.812Z,63.03
2022-08-26T11:07:03.802Z,63.16
2022-08-26T11:08:03.775Z,63.23
2022-08-26T11:09:03.773Z,62.99
2022-08-26T11:10:03.783Z,63.07
2022-08-26T11:11:03.753Z,63.16
2022-08-26T11:12:10.017Z,63.08
2022-08-26T11:13:04.705Z,63.01
2022-08-26T11:14:03.707Z,62.99
2022-08-26T11:15:05.245Z,63.03
2022-08-26T11:16:03.739Z,63.12
2022-08-26T11:17:03.750Z,63.17
2022-08-26T11:18:03.656Z,63.15
2022-08-26T11:19:03.653Z,63.26
2022-08-26T11:20:07.455Z,63.09
2022-08-26T11:21:04.637Z,63.04
2022-08-26T11:22:04.626Z,62.97
2022-08-26T11:23:03.625Z,62.81
2022-08-26T11:24:03.588Z,62.66
2022-08-26T11:25:03.573Z,62.61
2022-08-26T11:26:03.581Z,62.71
2022-08-26T11:27:03.563Z,62.72
2022-08-26T11:28:03.590Z,62.82
2022-08-26T11:29:03.529Z,62.96
2022-08-26T11:30:03.511Z,62.90
2022-08-26T11:31:04.520Z,62.91
2022-08-26T11:32:03.530Z,63.02
2022-08-26T11:33:03.553Z,62.87
2022-08-26T11:34:03.479Z,63.02
2022-08-26T11:35:03.463Z,62.74
2022-08-26T11:36:11.600Z,62.71
2022-08-26T11:37:04.441Z,62.95
2022-08-26T11:38:04.292Z,63.00
2022-08-26T11:39:03.441Z,63.02
2022-08-26T11:40:03.967Z,63.33
2022-08-26T11:41:03.387Z,63.30
2022-08-26T11:42:03.381Z,63.43
2022-08-26T11:43:03.388Z,63.55
2022-08-26T11:44:03.362Z,63.62
2022-08-26T11:45:05.620Z,63.71
2022-08-26T11:46:03.431Z,63.56
2022-08-26T11:47:03.323Z,63.56
2022-08-26T11:48:03.322Z,63.38
2022-08-26T11:49:03.301Z,63.27
2022-08-26T11:50:03.326Z,63.21
2022-08-26T11:51:03.278Z,63.09
2022-08-26T11:52:03.267Z,62.68
2022-08-26T11:53:03.252Z,62.64
2022-08-26T11:54:03.236Z,62.52
2022-08-26T11:55:03.248Z,62.55
2022-08-26T11:56:03.240Z,62.59
2022-08-26T11:57:07.790Z,62.53
2022-08-26T11:58:04.738Z,62.41
2022-08-26T11:59:03.196Z,62.12
2022-08-26T12:00:03.176Z,62.06
2022-08-26T12:01:03.669Z,61.80
2022-08-26T12:02:03.148Z,61.69
2022-08-26T12:03:03.167Z,61.69
2022-08-26T12:04:03.177Z,61.62
2022-08-26T12:05:03.115Z,61.62
2022-08-26T12:06:03.124Z,61.59
2022-08-26T12:07:03.087Z,61.51
2022-08-26T12:08:03.130Z,61.44
2022-08-26T12:09:03.081Z,61.54
2022-08-26T12:10:03.067Z,61.35
2022-08-26T12:11:03.058Z,61.15
2022-08-26T12:12:03.038Z,60.90
2022-08-26T12:13:03.020Z,60.92
2022-08-26T12:14:03.011Z,60.98
2022-08-26T12:15:03.003Z,61.16
2022-08-26T12:16:03.081Z,61.39
2022-08-26T12:17:02.980Z,61.24
2022-08-26T12:18:02.974Z,61.12
2022-08-26T12:19:02.961Z,61.43
2022-08-26T12:20:02.948Z,61.56
2022-08-26T12:21:02.949Z,61.79
2022-08-26T12:22:02.930Z,61.85
2022-08-26T12:23:02.912Z,61.68
2022-08-26T12:24:02.886Z,61.66
2022-08-26T12:25:02.906Z,61.71
2022-08-26T12:26:02.881Z,61.97
2022-08-26T12:27:02.879Z,62.04
2022-08-26T12:28:02.851Z,62.06
2022-08-26T12:29:12.587Z,62.01
2022-08-26T12:30:03.824Z,61.88
2022-08-26T12:31:02.814Z,61.86
2022-08-26T12:32:02.904Z,61.98
2022-08-26T12:33:02.788Z,62.15
2022-08-26T12:34:03.778Z,62.33
2022-08-26T12:35:10.030Z,62.22
2022-08-26T12:36:03.755Z,62.30
2022-08-26T12:37:02.767Z,62.33
2022-08-26T12:38:02.805Z,62.62
2022-08-26T12:39:02.727Z,62.81
2022-08-26T12:40:02.803Z,62.75
2022-08-26T12:41:02.695Z,62.27
2022-08-26T12:42:02.710Z,61.82
2022-08-26T12:43:02.681Z,61.81
2022-08-26T12:44:02.679Z,61.67
2022-08-26T12:45:02.657Z,61.53
2022-08-26T12:46:02.680Z,61.60
2022-08-26T12:47:02.640Z,61.28
2022-08-26T12:48:02.629Z,61.46
2022-08-26T12:49:02.619Z,61.64
2022-08-26T12:50:02.598Z,61.60
2022-08-26T12:51:02.585Z,61.66
2022-08-26T12:52:02.569Z,61.30